Pittsburgh, Pennsylvania
Traffic Map
Current Weather Conditions
Pittsburgh, Pennsylvania
Clear
Clear
26°
Feels Like: 26°
Wind Chill: 26° Ceiling: Unl
Heat Index: 26° Visibility: 10mi
Dew Point: Wind: 6mph
Humidity: 22% Direction: 150° (SSE)
Pressure: 30.22in Gusts: 0mph
Raw Report DataKAGC 242253Z AUTO 15005KT 10SM CLR 26/02 A3022 RMK AO2 SLP233 T02560022 TSNO
Traffic Incident Summary
Active as of:
Severity:
Category:
InformationThere was an issue retrieving the traffic information for this location. Please try a different location or try again shortly.
Advertisements
Track Severe Weather on mobile